Time;durP1;ratioP1;P1;durP2;ratioP2;P2;SDS_P1;SDS_P2;PMS_P1;PMS_P2;Temp;Humidity;BMP_temperature;BMP_pressure;BME280_temperature;BME280_humidity;BME280_pressure;Samples;Min_cycle;Max_cycle;Signal;HPM_P1;HPM_P2
2021/03/11 00:01:25;;;;;;;25.90;12.23;;;;;;;-1.15;100.00;94649.63;10284799;28;20057;-76
2021/03/11 00:06:26;;;;;;;26.02;13.43;;;;;;;-1.02;100.00;94660.16;10285149;28;20701;-76
2021/03/11 00:11:26;;;;;;;18.93;12.17;;;;;;;-1.29;100.00;94659.34;10284029;28;20030;-76
2021/03/11 00:16:27;;;;;;;16.83;11.00;;;;;;;-1.37;100.00;94657.72;10305425;28;20034;-76
2021/03/11 00:21:27;;;;;;;27.08;12.15;;;;;;;-1.42;100.00;94657.53;10323884;28;20273;-77
2021/03/11 00:26:27;;;;;;;23.30;12.93;;;;;;;-1.39;100.00;94657.91;10324437;28;20045;-76
2021/03/11 00:31:28;;;;;;;19.75;11.60;;;;;;;-1.43;100.00;94654.06;10324055;28;20340;-76
2021/03/11 00:36:28;;;;;;;21.47;11.93;;;;;;;-1.64;100.00;94652.41;10324066;28;20114;-76
2021/03/11 00:41:28;;;;;;;24.83;13.00;;;;;;;-1.64;100.00;94646.31;10323922;28;20088;-75
2021/03/11 00:46:29;;;;;;;26.57;14.40;;;;;;;-1.87;100.00;94646.66;10322836;28;20041;-75
2021/03/11 00:51:29;;;;;;;21.93;12.27;;;;;;;-1.87;100.00;94654.56;10323627;28;20359;-76
2021/03/11 00:56:30;;;;;;;23.33;14.05;;;;;;;-1.85;100.00;94653.34;10323708;28;20269;-76
2021/03/11 01:01:31;;;;;;;22.33;12.38;;;;;;;-1.85;100.00;94650.72;10322457;28;20109;-76
2021/03/11 01:06:31;;;;;;;23.27;13.38;;;;;;;-1.90;100.00;94643.41;10321432;28;20525;-76
2021/03/11 01:11:32;;;;;;;21.45;12.27;;;;;;;-1.91;100.00;94644.41;10336819;28;20073;-76
2021/03/11 01:16:32;;;;;;;29.45;13.75;;;;;;;-2.00;100.00;94650.88;10320593;28;20902;-76
2021/03/11 01:21:33;;;;;;;21.48;12.68;;;;;;;-1.97;100.00;94642.56;10321942;28;20029;-76
2021/03/11 01:26:33;;;;;;;21.52;13.07;;;;;;;-1.83;100.00;94645.25;10322070;28;20034;-76
2021/03/11 01:31:34;;;;;;;22.40;14.37;;;;;;;-1.95;100.00;94655.56;10321120;28;20034;-77
2021/03/11 01:36:34;;;;;;;22.83;13.32;;;;;;;-2.00;100.00;94658.75;10322555;28;20286;-76
2021/03/11 01:41:34;;;;;;;23.17;13.32;;;;;;;-2.13;100.00;94661.34;10311070;28;20470;-76
2021/03/11 01:46:35;;;;;;;20.53;12.20;;;;;;;-2.16;100.00;94667.00;10281964;28;20037;-76
2021/03/11 01:51:35;;;;;;;21.67;11.57;;;;;;;-2.23;100.00;94669.63;10296419;28;20646;-75
2021/03/11 01:56:36;;;;;;;20.10;11.30;;;;;;;-2.29;100.00;94673.00;10281578;28;20836;-75
2021/03/11 02:01:37;;;;;;;25.00;14.18;;;;;;;-2.26;100.00;94669.97;10281385;28;20372;-76
2021/03/11 02:06:37;;;;;;;20.20;12.13;;;;;;;-2.20;100.00;94663.16;10280662;28;20041;-75
2021/03/11 02:11:43;;;;;;;19.77;11.67;;;;;;;-2.27;100.00;94663.91;10280883;28;20031;-76
2021/03/11 02:16:52;;;;;;;23.38;11.95;;;;;;;-2.24;100.00;94655.63;10280116;28;20270;-76
2021/03/11 02:22:31;;;;;;;23.10;13.77;;;;;;;-2.25;100.00;94664.56;10296613;28;20059;-75
2021/03/11 02:27:37;;;;;;;;;;;;;;;-2.18;100.00;94676.91;10282285;28;20043;-75
2021/03/11 02:32:38;;;;;;;21.50;12.65;;;;;;;-2.25;100.00;94680.34;10281775;28;19914;-77
2021/03/11 02:37:46;;;;;;;20.67;13.23;;;;;;;-2.26;100.00;94683.97;10282034;28;20110;-77
2021/03/11 02:42:49;;;;;;;20.10;12.02;;;;;;;-2.30;100.00;94681.91;10293625;28;20114;-77
2021/03/11 02:47:50;;;;;;;20.05;12.65;;;;;;;-2.30;100.00;94692.44;10287367;28;20037;-77
2021/03/11 02:52:51;;;;;;;20.40;11.93;;;;;;;-2.32;100.00;94697.91;10285969;28;20054;-76
2021/03/11 02:57:54;;;;;;;23.13;11.80;;;;;;;-2.28;100.00;94700.97;10302552;28;20038;-76
2021/03/11 03:02:55;;;;;;;20.25;12.10;;;;;;;-2.27;100.00;94699.97;10286938;28;20078;-76
2021/03/11 03:07:57;;;;;;;12.00;8.88;;;;;;;-2.18;100.00;94713.78;10285761;28;20034;-76
2021/03/11 03:13:02;;;;;;;15.05;9.02;;;;;;;-1.85;100.00;94702.59;10286862;28;20027;-76
2021/03/11 03:18:04;;;;;;;12.00;7.70;;;;;;;-1.74;100.00;94718.63;10287395;28;20042;-78
2021/03/11 03:23:07;;;;;;;16.75;8.57;;;;;;;-1.67;100.00;94712.59;10287216;28;20031;-77
2021/03/11 03:28:07;;;;;;;11.35;6.65;;;;;;;-1.56;100.00;94715.47;10286703;28;20167;-76
2021/03/11 03:33:07;;;;;;;13.00;7.18;;;;;;;-1.38;100.00;94722.81;10285980;28;20467;-75
2021/03/11 03:38:08;;;;;;;12.00;6.82;;;;;;;-1.30;100.00;94715.72;10285833;28;20093;-76
2021/03/11 03:43:17;;;;;;;13.32;6.80;;;;;;;-1.31;100.00;94716.72;10285966;28;20037;-76
2021/03/11 03:48:26;;;;;;;8.50;5.88;;;;;;;-1.36;100.00;94712.06;10285811;28;20085;-76
2021/03/11 03:53:34;;;;;;;7.75;5.13;;;;;;;-1.34;100.00;94714.50;10284437;28;20030;-76
2021/03/11 03:58:36;;;;;;;9.38;6.90;;;;;;;-1.30;100.00;94724.44;10285350;28;20038;-76
2021/03/11 04:03:38;;;;;;;10.13;6.30;;;;;;;-1.23;100.00;94716.56;10283050;28;20497;-76
2021/03/11 04:08:41;;;;;;;8.25;5.97;;;;;;;-1.28;100.00;94721.63;10285128;28;20390;-76
2021/03/11 04:13:42;;;;;;;8.63;5.90;;;;;;;-1.34;100.00;94728.50;10284680;28;20462;-75
2021/03/11 04:18:43;;;;;;;8.52;5.55;;;;;;;-1.30;100.00;94726.28;10284117;28;20501;-76
2021/03/11 04:23:45;;;;;;;10.52;5.70;;;;;;;-1.39;100.00;94742.28;10284537;28;20141;-76
2021/03/11 04:28:45;;;;;;;10.18;5.50;;;;;;;-1.27;100.00;94749.59;10284146;28;20111;-76
2021/03/11 04:33:46;;;;;;;8.40;5.80;;;;;;;-1.39;100.00;94746.75;10284135;28;20022;-75
2021/03/11 04:38:48;;;;;;;7.75;5.18;;;;;;;-1.38;100.00;94753.66;10282400;28;20712;-75
2021/03/11 04:43:50;;;;;;;5.22;3.75;;;;;;;-1.39;100.00;94767.84;10283131;28;20039;-76
2021/03/11 04:48:52;;;;;;;6.40;4.63;;;;;;;-1.42;100.00;94768.22;10282958;28;20518;-76
2021/03/11 04:53:54;;;;;;;5.88;4.40;;;;;;;-1.60;100.00;94779.31;10282879;28;20057;-76
2021/03/11 04:58:58;;;;;;;5.57;4.45;;;;;;;-1.64;100.00;94781.50;10282691;28;20034;-76
2021/03/11 05:04:02;;;;;;;4.07;3.63;;;;;;;-1.72;100.00;94785.13;10282098;28;20039;-76
2021/03/11 05:09:03;;;;;;;5.05;4.55;;;;;;;-1.58;100.00;94785.19;10282061;28;20041;-75
2021/03/11 05:14:03;;;;;;;4.82;3.90;;;;;;;-1.52;100.00;94802.03;10281132;28;20030;-78
2021/03/11 05:19:04;;;;;;;7.55;5.85;;;;;;;-1.58;100.00;94801.81;10281086;28;20037;-78
2021/03/11 05:24:06;;;;;;;4.90;3.72;;;;;;;-1.51;100.00;94801.84;10280651;28;20042;-77
2021/03/11 05:29:06;;;;;;;5.78;4.72;;;;;;;-1.48;100.00;94811.19;10306663;28;20061;-75
2021/03/11 05:34:07;;;;;;;5.80;5.20;;;;;;;-1.44;100.00;94812.41;10317760;28;20555;-72
2021/03/11 05:39:08;;;;;;;5.87;4.03;;;;;;;-1.41;100.00;94817.28;10296111;28;20030;-72
2021/03/11 05:44:09;;;;;;;6.20;5.47;;;;;;;-1.47;100.00;94823.34;10281138;28;20449;-72
2021/03/11 05:49:11;;;;;;;9.88;5.97;;;;;;;-1.30;100.00;94837.81;10279370;28;20093;-72
2021/03/11 05:54:12;;;;;;;7.32;5.53;;;;;;;-1.23;100.00;94841.31;10294139;28;20027;-72
2021/03/11 05:59:13;;;;;;;7.10;4.85;;;;;;;-1.12;100.00;94850.47;10278754;28;20061;-74
2021/03/11 06:04:15;;;;;;;6.45;4.15;;;;;;;-0.98;100.00;94847.88;10296911;28;20059;-74
2021/03/11 06:09:17;;;;;;;4.93;3.53;;;;;;;-0.93;100.00;94861.28;10314958;28;20030;-71
2021/03/11 06:14:19;;;;;;;6.32;4.32;;;;;;;-0.91;100.00;94880.38;10339790;28;20018;-72
2021/03/11 06:19:20;;;;;;;9.07;6.07;;;;;;;-1.02;100.00;94888.84;10328815;28;20480;-72
2021/03/11 06:24:23;;;;;;;12.00;4.22;;;;;;;-0.92;100.00;94899.84;10328591;28;20104;-72
2021/03/11 06:29:40;;;;;;;4.72;4.18;;;;;;;-0.95;100.00;94916.91;10327639;28;20093;-73
2021/03/11 06:34:43;;;;;;;3.97;3.55;;;;;;;-1.01;100.00;94922.94;10328066;28;20098;-71
2021/03/11 06:39:43;;;;;;;6.47;4.22;;;;;;;-0.77;100.00;94934.00;10328783;28;20034;-71
2021/03/11 06:44:45;;;;;;;13.30;6.05;;;;;;;-0.88;100.00;94943.28;10328551;28;20100;-73
2021/03/11 06:50:03;;;;;;;8.88;4.90;;;;;;;-0.84;100.00;94952.44;10327257;28;20034;-73
2021/03/11 06:55:09;;;;;;;9.57;5.82;;;;;;;-0.74;100.00;94966.09;10327859;28;20332;-73
2021/03/11 07:00:18;;;;;;;7.85;5.20;;;;;;;-0.65;100.00;94979.94;10339668;28;20057;-73
2021/03/11 07:05:20;;;;;;;8.60;4.85;;;;;;;-0.54;100.00;94982.00;10333667;28;20034;-73
2021/03/11 07:10:26;;;;;;;10.32;4.78;;;;;;;-0.54;100.00;94979.38;10327810;28;20061;-73
2021/03/11 07:15:28;;;;;;;10.75;5.47;;;;;;;-0.47;100.00;94978.59;10327331;28;20445;-74
2021/03/11 07:20:33;;;;;;;7.60;5.75;;;;;;;-0.40;100.00;94985.50;10328346;28;20818;-73
2021/03/11 07:25:42;;;;;;;9.43;6.15;;;;;;;-0.27;100.00;94992.66;10327507;28;20033;-74
2021/03/11 07:30:49;;;;;;;7.68;4.47;;;;;;;-0.31;100.00;95007.25;10325858;28;20860;-73
2021/03/11 07:35:53;;;;;;;5.33;3.73;;;;;;;-0.31;100.00;95017.81;10325875;28;20034;-74
2021/03/11 07:40:56;;;;;;;6.53;3.30;;;;;;;-0.15;100.00;95019.31;10327278;28;20027;-76
2021/03/11 07:46:00;;;;;;;4.00;3.05;;;;;;;-0.04;100.00;95023.19;10315024;28;20034;-75
2021/03/11 07:51:02;;;;;;;3.80;2.75;;;;;;;0.07;100.00;95029.72;10322458;28;20088;-76
2021/03/11 07:56:04;;;;;;;4.45;3.33;;;;;;;0.00;100.00;95032.38;10308412;28;20027;-74
2021/03/11 08:01:06;;;;;;;5.43;2.65;;;;;;;0.14;100.00;95041.94;10316193;28;20057;-78
2021/03/11 08:06:20;;;;;;;4.88;3.67;;;;;;;0.25;100.00;95050.28;10323850;28;20042;-73
2021/03/11 08:11:37;;;;;;;4.53;3.63;;;;;;;0.32;100.00;95054.56;10324077;28;20061;-73
2021/03/11 08:16:38;;;;;;;6.35;3.90;;;;;;;0.23;100.00;95074.28;10313394;28;20019;-73
2021/03/11 08:21:43;;;;;;;13.50;4.53;;;;;;;0.26;100.00;95070.41;10284659;28;20026;-73
2021/03/11 08:26:45;;;;;;;4.70;3.30;;;;;;;0.66;100.00;95067.84;10288615;28;20037;-76
2021/03/11 08:31:46;;;;;;;7.03;3.80;;;;;;;0.91;100.00;95073.31;10280940;28;20100;-75
2021/03/11 08:36:46;;;;;;;6.28;4.18;;;;;;;1.05;100.00;95079.44;10319253;28;20820;-76
2021/03/11 08:41:47;;;;;;;4.60;3.00;;;;;;;1.29;100.00;95082.47;10321758;28;20085;-78
2021/03/11 08:46:49;;;;;;;10.70;4.70;;;;;;;1.45;100.00;95084.66;10283318;28;20305;-76
2021/03/11 08:51:50;;;;;;;5.85;3.38;;;;;;;1.44;100.00;95085.69;10280900;28;20274;-77
2021/03/11 08:56:50;;;;;;;6.17;3.87;;;;;;;1.57;100.00;95090.13;10302259;28;20511;-74
2021/03/11 09:01:54;;;;;;;7.23;4.07;;;;;;;1.66;100.00;95088.06;10320819;28;20049;-73
2021/03/11 09:06:58;;;;;;;7.30;5.10;;;;;;;1.91;100.00;95090.81;10318439;28;20862;-73
2021/03/11 09:11:59;;;;;;;8.95;4.05;;;;;;;2.08;100.00;95093.00;10308396;28;20019;-73
2021/03/11 09:17:08;;;;;;;8.65;4.25;;;;;;;2.37;100.00;95103.06;10321411;28;20018;-79
2021/03/11 09:22:38;;;;;;;8.13;5.95;;;;;;;2.13;100.00;95107.25;10321652;28;20030;-75
2021/03/11 09:28:00;;;;;;;9.45;4.78;;;;;;;2.24;100.00;95111.09;10317146;28;20095;-73
2021/03/11 09:33:08;;;;;;;7.15;4.57;;;;;;;2.10;100.00;95118.28;10318443;28;20481;-75
2021/03/11 09:38:11;;;;;;;7.88;5.07;;;;;;;1.80;100.00;95121.47;10316677;28;20410;-73
2021/03/11 09:43:30;;;;;;;7.78;4.72;;;;;;;1.82;100.00;95127.34;10319513;28;20141;-73
2021/03/11 09:48:33;;;;;;;9.70;5.68;;;;;;;1.67;100.00;95121.50;10321264;28;20038;-73
2021/03/11 09:53:44;;;;;;;11.57;5.95;;;;;;;1.68;100.00;95131.06;10331483;28;20023;-76
2021/03/11 09:58:51;;;;;;;7.63;5.78;;;;;;;1.58;100.00;95136.81;10329079;28;20030;-72
2021/03/11 10:03:53;;;;;;;18.73;8.40;;;;;;;1.54;100.00;95127.63;10290013;28;20043;-72
2021/03/11 10:08:59;;;;;;;12.27;7.43;;;;;;;1.63;100.00;95138.81;10289846;28;20794;-73
2021/03/11 10:14:02;;;;;;;13.75;6.38;;;;;;;1.65;100.00;95139.44;10304576;28;20078;-73
2021/03/11 10:19:12;;;;;;;13.40;8.02;;;;;;;1.62;100.00;95147.78;10341314;28;20042;-74
2021/03/11 10:24:13;;;;;;;10.85;6.18;;;;;;;1.59;100.00;95150.84;10324771;28;20065;-73
2021/03/11 10:29:17;;;;;;;7.18;3.65;;;;;;;1.49;100.00;95159.22;10323436;28;20405;-74
2021/03/11 10:34:17;;;;;;;6.07;4.05;;;;;;;1.61;100.00;95157.56;10326457;28;20057;-73
2021/03/11 10:39:19;;;;;;;6.97;4.77;;;;;;;1.74;100.00;95172.63;10325812;28;20109;-74
2021/03/11 10:44:20;;;;;;;6.40;4.53;;;;;;;1.69;100.00;95185.69;10325311;28;20304;-74
2021/03/11 10:49:38;;;;;;;9.05;5.47;;;;;;;1.73;100.00;95183.44;10328273;28;20504;-72
2021/03/11 10:54:39;;;;;;;8.90;6.03;;;;;;;1.74;100.00;95188.53;10318456;28;20017;-72
2021/03/11 10:59:58;;;;;;;11.88;7.20;;;;;;;1.60;100.00;95182.44;10326440;28;20766;-71
2021/03/11 11:04:58;;;;;;;13.13;7.45;;;;;;;1.66;100.00;95188.75;10324672;28;20584;-72
2021/03/11 11:09:59;;;;;;;11.93;6.55;;;;;;;1.42;100.00;95200.78;10341979;28;20117;-76
2021/03/11 11:15:00;;;;;;;13.02;7.55;;;;;;;1.35;100.00;95198.97;10326378;28;20034;-72
2021/03/11 11:20:00;;;;;;;7.78;5.47;;;;;;;1.27;100.00;95188.56;10325365;28;20026;-72
2021/03/11 11:25:02;;;;;;;7.63;4.97;;;;;;;1.56;100.00;95191.00;10318580;28;20041;-77
2021/03/11 11:30:05;;;;;;;13.27;5.75;;;;;;;1.93;100.00;95189.50;10326076;28;20461;-76
2021/03/11 11:35:06;;;;;;;8.80;5.05;;;;;;;2.33;100.00;95194.69;10323015;28;20034;-76
2021/03/11 11:40:07;;;;;;;8.48;6.18;;;;;;;2.59;100.00;95178.88;10322087;28;20030;-76
2021/03/11 11:45:10;;;;;;;13.27;5.70;;;;;;;2.69;100.00;95177.41;10326127;28;20034;-76
2021/03/11 11:50:11;;;;;;;9.70;5.20;;;;;;;2.49;100.00;95168.72;10323906;28;20077;-76
2021/03/11 11:55:12;;;;;;;12.60;6.40;;;;;;;2.41;100.00;95172.41;10324558;28;20026;-76
2021/03/11 12:00:16;;;;;;;9.35;5.40;;;;;;;2.64;100.00;95163.16;10299302;28;20042;-76
2021/03/11 12:05:16;;;;;;;7.63;4.70;;;;;;;2.73;100.00;95157.38;10313758;28;20042;-76
2021/03/11 12:10:17;;;;;;;10.27;6.18;;;;;;;2.82;100.00;95155.28;10310884;28;20034;-75
2021/03/11 12:15:17;;;;;;;10.20;5.85;;;;;;;3.33;100.00;95157.97;10285153;28;20101;-75
2021/03/11 12:20:18;;;;;;;6.97;4.43;;;;;;;3.69;100.00;95145.78;10284372;28;20037;-76
2021/03/11 12:25:18;;;;;;;14.40;5.43;;;;;;;3.83;100.00;95139.31;10299367;28;20290;-76
2021/03/11 12:30:19;;;;;;;8.73;5.37;;;;;;;3.36;100.00;95138.94;10285012;28;20041;-75
2021/03/11 12:35:19;;;;;;;13.80;6.05;;;;;;;2.88;100.00;95137.66;10291526;28;20404;-76
2021/03/11 12:40:21;;;;;;;10.83;5.73;;;;;;;2.93;100.00;95129.06;10283700;28;20413;-76
2021/03/11 12:45:23;;;;;;;13.38;6.85;;;;;;;2.44;100.00;95132.19;10289994;28;20043;-75
2021/03/11 12:50:24;;;;;;;13.38;6.18;;;;;;;1.90;100.00;95133.44;10298173;28;20019;-75
2021/03/11 12:55:24;;;;;;;10.13;6.82;;;;;;;1.52;100.00;95135.78;10304924;28;20034;-74
2021/03/11 13:00:25;;;;;;;13.73;7.60;;;;;;;1.28;100.00;95141.72;10321746;28;21715;-72
2021/03/11 13:05:25;;;;;;;15.23;7.90;;;;;;;1.53;100.00;95141.91;10321513;28;20111;-73
2021/03/11 13:10:26;;;;;;;11.37;7.47;;;;;;;1.45;100.00;95148.25;10321617;28;20042;-73
2021/03/11 13:15:26;;;;;;;11.53;8.50;;;;;;;1.80;100.00;95142.66;10316949;28;20286;-72
2021/03/11 13:20:27;;;;;;;13.25;8.93;;;;;;;1.79;100.00;95159.56;10281679;28;20282;-73
2021/03/11 13:25:27;;;;;;;12.52;7.15;;;;;;;2.00;100.00;95153.19;10281940;28;20071;-73
2021/03/11 13:30:27;;;;;;;12.30;7.15;;;;;;;2.11;100.00;95151.75;10281982;28;20096;-74
2021/03/11 13:35:28;;;;;;;12.05;8.20;;;;;;;2.02;100.00;95152.97;10281379;28;20030;-73
2021/03/11 13:40:28;;;;;;;11.13;6.60;;;;;;;1.86;100.00;95143.66;10282288;28;20042;-73
2021/03/11 13:45:29;;;;;;;13.38;8.02;;;;;;;1.70;100.00;95134.31;10296655;28;20027;-74
2021/03/11 13:50:30;;;;;;;16.25;7.03;;;;;;;1.56;100.00;95141.47;10282243;28;20500;-74
2021/03/11 13:55:30;;;;;;;15.55;8.02;;;;;;;1.47;100.00;95130.28;10295307;28;20034;-74
2021/03/11 14:00:31;;;;;;;11.57;7.35;;;;;;;1.64;100.00;95135.16;10321909;28;20956;-74
2021/03/11 14:05:32;;;;;;;9.30;6.18;;;;;;;1.74;100.00;95132.88;10321113;28;20034;-73
2021/03/11 14:10:32;;;;;;;13.73;6.15;;;;;;;1.82;100.00;95139.81;10322111;28;20034;-73
2021/03/11 14:15:33;;;;;;;21.60;6.57;;;;;;;1.95;100.00;95128.34;10317032;28;20450;-72
2021/03/11 14:20:34;;;;;;;12.85;6.82;;;;;;;1.86;100.00;95112.66;10309699;28;20034;-74
2021/03/11 14:25:34;;;;;;;14.48;8.50;;;;;;;1.79;100.00;95109.22;10314803;28;20030;-74
2021/03/11 14:30:35;;;;;;;9.95;6.68;;;;;;;1.72;100.00;95111.09;10320180;28;20046;-74
2021/03/11 14:35:35;;;;;;;15.48;7.50;;;;;;;1.59;100.00;95103.16;10323580;28;20033;-73
2021/03/11 14:40:35;;;;;;;12.52;6.95;;;;;;;1.59;100.00;95105.81;10326698;28;20045;-74
2021/03/11 14:45:37;;;;;;;10.63;7.18;;;;;;;1.37;100.00;95098.13;10320555;28;20117;-73
2021/03/11 14:50:37;;;;;;;11.60;7.57;;;;;;;1.25;100.00;95097.94;10288386;28;20035;-74
2021/03/11 14:55:38;;;;;;;13.38;6.88;;;;;;;1.11;100.00;95099.78;10319385;28;20477;-73
2021/03/11 15:00:38;;;;;;;13.55;7.15;;;;;;;1.05;100.00;95099.78;10321687;28;20403;-73
2021/03/11 15:05:39;;;;;;;21.50;10.10;;;;;;;1.06;100.00;95106.69;10318713;28;20740;-74
2021/03/11 15:10:39;;;;;;;18.52;9.80;;;;;;;1.02;100.00;95114.25;10312613;28;20274;-73
2021/03/11 15:15:40;;;;;;;17.55;9.57;;;;;;;1.07;100.00;95124.22;10302261;28;20026;-74
2021/03/11 15:20:41;;;;;;;18.98;10.13;;;;;;;1.08;100.00;95120.56;10326849;28;20920;-74
2021/03/11 15:25:42;;;;;;;17.55;10.50;;;;;;;1.04;100.00;95129.94;10325330;28;20042;-75
2021/03/11 15:30:42;;;;;;;19.38;9.63;;;;;;;1.11;100.00;95128.88;10325603;28;20406;-75
2021/03/11 15:35:43;;;;;;;14.75;9.40;;;;;;;0.73;100.00;95137.44;10322971;28;20027;-76
2021/03/11 15:40:44;;;;;;;16.65;8.98;;;;;;;0.75;100.00;95143.31;10285386;28;20062;-74
2021/03/11 15:45:45;;;;;;;17.15;9.05;;;;;;;0.62;100.00;95152.06;10284272;28;20034;-75
2021/03/11 15:50:45;;;;;;;28.80;12.68;;;;;;;0.75;100.00;95153.91;10291796;28;20049;-75
2021/03/11 15:55:46;;;;;;;23.83;12.50;;;;;;;0.60;100.00;95164.69;10316030;28;20027;-74
2021/03/11 16:00:47;;;;;;;22.10;11.53;;;;;;;0.49;100.00;95167.91;10298917;28;20038;-74
2021/03/11 16:05:47;;;;;;;23.65;12.43;;;;;;;0.44;100.00;95163.19;10297135;28;20034;-73
2021/03/11 16:10:48;;;;;;;23.83;12.88;;;;;;;0.33;100.00;95158.47;10284500;28;20146;-75
2021/03/11 16:15:48;;;;;;;26.90;12.38;;;;;;;0.48;100.00;95159.13;10291531;28;20084;-75
2021/03/11 16:20:49;;;;;;;25.38;13.32;;;;;;;0.23;100.00;95163.34;10284399;28;20099;-74
2021/03/11 16:25:49;;;;;;;21.33;11.73;;;;;;;0.30;100.00;95153.59;10311332;28;20059;-75
2021/03/11 16:30:50;;;;;;;31.17;13.97;;;;;;;0.33;100.00;95172.50;10339105;28;20269;-78
2021/03/11 16:35:50;;;;;;;26.95;13.25;;;;;;;0.19;100.00;95176.13;10323750;28;20033;-78
2021/03/11 16:40:51;;;;;;;29.67;15.32;;;;;;;0.24;100.00;95194.84;10320964;28;20519;-77
2021/03/11 16:45:51;;;;;;;22.17;13.20;;;;;;;0.20;100.00;95195.47;10320958;28;20041;-74
2021/03/11 16:50:52;;;;;;;23.67;12.43;;;;;;;0.02;100.00;95206.56;10323856;28;20058;-74
2021/03/11 16:55:52;;;;;;;30.17;15.50;;;;;;;-0.13;100.00;95204.03;10321552;28;20049;-76
2021/03/11 17:00:53;;;;;;;29.90;15.73;;;;;;;-0.31;100.00;95220.38;10316336;28;20309;-75
2021/03/11 17:05:53;;;;;;;41.42;21.88;;;;;;;-0.34;100.00;95218.94;10321453;28;20039;-73
2021/03/11 17:10:54;;;;;;;38.78;20.45;;;;;;;-0.39;100.00;95226.59;10323309;28;20026;-75
2021/03/11 17:15:54;;;;;;;45.15;21.75;;;;;;;-0.30;100.00;95228.09;10322280;28;20024;-75
2021/03/11 17:20:54;;;;;;;45.47;22.67;;;;;;;-0.27;100.00;95230.34;10306453;28;20123;-76
2021/03/11 17:25:55;;;;;;;44.30;23.58;;;;;;;-0.28;100.00;95217.34;10335183;28;20660;-74
2021/03/11 17:30:56;;;;;;;51.67;24.77;;;;;;;-0.22;100.00;95216.56;10322109;28;20030;-74
2021/03/11 17:35:56;;;;;;;56.65;31.88;;;;;;;-0.28;100.00;95207.59;10298720;28;20098;-73
2021/03/11 17:40:57;;;;;;;57.95;30.65;;;;;;;-0.34;100.00;95208.38;10318307;28;20488;-77
2021/03/11 17:45:57;;;;;;;61.10;32.60;;;;;;;-0.42;100.00;95203.22;10318989;28;20040;-73
2021/03/11 17:50:58;;;;;;;57.15;26.92;;;;;;;-0.41;100.00;95207.50;10319357;28;20026;-73
2021/03/11 17:55:58;;;;;;;62.22;26.40;;;;;;;-0.40;100.00;95211.78;10317033;28;20037;-77
2021/03/11 18:00:59;;;;;;;48.20;21.40;;;;;;;-0.42;100.00;95221.72;10321879;28;20051;-77
2021/03/11 18:05:59;;;;;;;46.63;23.95;;;;;;;-0.42;100.00;95213.78;10333160;28;20042;-78
2021/03/11 18:11:00;;;;;;;53.47;25.40;;;;;;;-0.35;100.00;95210.19;10326731;28;20030;-77
2021/03/11 18:16:00;;;;;;;46.70;24.98;;;;;;;-0.36;100.00;95203.28;10328550;28;20339;-77
2021/03/11 18:21:01;;;;;;;47.73;25.33;;;;;;;-0.48;100.00;95202.16;10329178;28;20045;-74
2021/03/11 18:26:02;;;;;;;50.10;25.83;;;;;;;-0.53;100.00;95212.47;10330139;28;20033;-73
2021/03/11 18:31:03;;;;;;;47.95;24.42;;;;;;;-0.54;100.00;95214.31;10329207;28;20034;-73
2021/03/11 18:36:04;;;;;;;49.03;23.85;;;;;;;-0.52;100.00;95216.75;10309327;28;20833;-74
2021/03/11 18:41:04;;;;;;;48.45;23.55;;;;;;;-0.53;100.00;95225.69;10288970;28;20383;-74
2021/03/11 18:46:05;;;;;;;44.25;23.17;;;;;;;-0.63;100.00;95236.56;10288447;28;20517;-73
2021/03/11 18:51:06;;;;;;;54.63;25.10;;;;;;;-0.68;100.00;95231.06;10324341;28;20022;-74
2021/03/11 18:56:06;;;;;;;55.25;26.30;;;;;;;-0.80;100.00;95219.41;10328387;28;20775;-74
2021/03/11 19:01:08;;;;;;;54.08;24.60;;;;;;;-0.88;100.00;95230.88;10328679;28;20512;-74
2021/03/11 19:06:08;;;;;;;58.67;25.92;;;;;;;-0.83;100.00;95248.81;10326295;28;20161;-74
2021/03/11 19:11:09;;;;;;;49.85;23.20;;;;;;;-1.24;100.00;95251.03;10327225;28;20143;-74
2021/03/11 19:16:10;;;;;;;49.20;22.52;;;;;;;-1.43;100.00;95247.16;10325772;28;20029;-73
2021/03/11 19:21:11;;;;;;;39.22;19.40;;;;;;;-1.59;100.00;95257.94;10305135;28;20026;-72
2021/03/11 19:26:14;;;;;;;43.22;21.83;;;;;;;-1.65;100.00;95266.56;10286736;28;20480;-73
2021/03/11 19:31:15;;;;;;;39.03;22.05;;;;;;;-1.64;100.00;95255.03;10296049;28;20485;-73
2021/03/11 19:36:15;;;;;;;45.97;24.20;;;;;;;-1.55;100.00;95267.09;10326329;28;20073;-73
2021/03/11 19:41:17;;;;;;;59.57;26.30;;;;;;;-1.62;100.00;95267.03;10324549;28;20409;-73
2021/03/11 19:46:17;;;;;;;44.35;22.13;;;;;;;-1.80;100.00;95263.94;10326948;28;20320;-73
2021/03/11 19:51:17;;;;;;;41.97;22.87;;;;;;;-1.95;100.00;95259.50;10320661;28;20093;-72
2021/03/11 19:56:18;;;;;;;56.20;24.30;;;;;;;-1.91;100.00;95262.63;10322195;28;20101;-75
2021/03/11 20:01:18;;;;;;;65.93;25.20;;;;;;;-1.81;100.00;95270.25;10308230;28;20039;-73
2021/03/11 20:06:19;;;;;;;46.20;20.30;;;;;;;-1.81;100.00;95262.34;10285383;28;20027;-73
2021/03/11 20:11:19;;;;;;;49.13;24.57;;;;;;;-1.74;100.00;95263.22;10285241;28;20270;-73
2021/03/11 20:16:20;;;;;;;49.10;23.58;;;;;;;-1.72;100.00;95250.69;10300953;28;20305;-73
2021/03/11 20:21:20;;;;;;;52.00;24.27;;;;;;;-1.63;100.00;95246.13;10285340;28;20074;-73
2021/03/11 20:26:20;;;;;;;59.70;26.95;;;;;;;-1.59;100.00;95256.13;10284418;28;20385;-73
2021/03/11 20:31:21;;;;;;;51.08;23.55;;;;;;;-1.48;100.00;95246.09;10284765;28;20453;-73
2021/03/11 20:36:22;;;;;;;37.23;15.60;;;;;;;-1.50;100.00;95253.38;10284770;28;20834;-73
2021/03/11 20:41:22;;;;;;;27.35;12.57;;;;;;;-1.62;100.00;95240.69;10284305;28;20097;-73
2021/03/11 20:46:23;;;;;;;21.00;13.27;;;;;;;-1.94;100.00;95260.31;10318393;28;20035;-73
2021/03/11 20:51:23;;;;;;;30.63;15.10;;;;;;;-2.24;100.00;95269.03;10283714;28;20273;-73
2021/03/11 20:56:24;;;;;;;26.10;13.30;;;;;;;-2.44;100.00;95270.56;10304290;28;20068;-73
2021/03/11 21:01:24;;;;;;;30.35;14.95;;;;;;;-2.46;100.00;95288.31;10304652;28;20054;-74
2021/03/11 21:06:25;;;;;;;26.00;14.13;;;;;;;-2.46;100.00;95290.97;10283844;28;20478;-74
2021/03/11 21:11:26;;;;;;;25.58;13.02;;;;;;;-2.46;100.00;95285.69;10283386;28;20772;-75
2021/03/11 21:16:27;;;;;;;28.55;14.85;;;;;;;-2.32;100.00;95274.38;10289214;28;20030;-74
2021/03/11 21:21:28;;;;;;;36.37;17.17;;;;;;;-2.31;100.00;95270.75;10324420;28;20023;-87
2021/03/11 21:26:28;;;;;;;22.98;14.15;;;;;;;-2.25;100.00;95259.50;10284724;28;20381;-76
2021/03/11 21:31:29;;;;;;;31.03;14.53;;;;;;;-2.19;100.00;95241.34;10287814;28;20549;-87
2021/03/11 21:36:31;;;;;;;24.05;13.02;;;;;;;-2.33;100.00;95249.06;10298640;28;20057;-89
2021/03/11 21:41:31;;;;;;;30.30;15.02;;;;;;;-2.36;100.00;95232.81;10330571;28;20493;-91
2021/03/11 21:46:31;;;;;;;25.98;14.80;;;;;;;-2.27;100.00;95243.06;10349662;28;20027;-90
2021/03/11 21:51:33;;;;;;;31.50;15.70;;;;;;;-2.24;100.00;95223.47;10330581;28;20033;-92
2021/03/11 21:56:42;;;;;;;24.90;13.80;;;;;;;-2.33;100.00;95235.91;10554530;23;20311;-95
2021/03/11 22:01:43;;;;;;;32.80;15.00;;;;;;;-2.43;100.00;95224.81;10599137;23;20563;-92
2021/03/11 22:06:44;;;;;;;27.23;13.98;;;;;;;-2.56;100.00;95219.34;10370867;28;20066;-91
2021/03/11 22:11:44;;;;;;;26.27;12.77;;;;;;;-2.58;100.00;95222.97;10373405;28;20026;-92
2021/03/11 22:16:45;;;;;;;41.22;15.93;;;;;;;-2.47;100.00;95207.72;10374384;28;20113;-93
2021/03/11 22:21:45;;;;;;;33.13;15.53;;;;;;;-2.50;100.00;95173.88;10388929;28;20107;-90
2021/03/11 22:26:46;;;;;;;29.88;14.05;;;;;;;-2.48;100.00;95174.53;10371982;28;20277;-92
2021/03/11 22:31:46;;;;;;;29.92;14.85;;;;;;;-2.42;100.00;95168.53;10371911;28;20112;-91
2021/03/11 22:36:47;;;;;;;25.40;13.05;;;;;;;-2.32;100.00;95174.34;10371512;28;20168;-93
2021/03/11 22:41:47;;;;;;;22.52;10.82;;;;;;;-2.48;100.00;95167.44;10371902;28;20026;-95
2021/03/11 22:46:48;;;;;;;20.50;12.88;;;;;;;-2.42;100.00;95168.53;10378118;28;20113;-93
2021/03/11 22:51:48;;;;;;;19.60;11.27;;;;;;;-2.39;100.00;95162.91;10372734;28;20365;-94
2021/03/11 22:56:49;;;;;;;22.25;11.05;;;;;;;-2.28;100.00;95167.72;10373087;28;20268;-89